Pagina principale
METAR-TAF:

METAR-TAF

Aeroporti :

Aeroporto di Metz Nancy-Lorena

Metz-Nancy-Lorraine, Francia

latitudine: 48-59N, longitudine: 006-15E, altezza: 264 m

Osservazione

Il bollettino è stato emesso 23 minuti fa, alle 16:30 UTC
Vento 11 kt da est, variando fra nord-est e est/sud-est
Temperature 21°C
Umidità 33%
Pressione 1018 hPa
Visibilità 10 km o più
nessuna nube inferiore a 1500 m e nessun cumulonembo

METAR: LFJL 311630Z AUTO 08011KT 050V120 CAVOK 21/04 Q1018 NOSIG

Ora: 18:53 (16:53 UTC)

Previsione

Il bollettino è stato emesso 5 ore e 53 minuti fa, alle 11:00 UTC
Previsione valida dal 31 alle 12 UTC al 01 alle 12 UTC
Vento 10 kt da est/nord-est
Visibilità 10 km o più
nessuna nube inferiore a 1500 m e nessun cumulonembo
Temporaneamente
dal 31 alle 12 UTC al 31 alle 15 UTC
Vento 15 kt da est/nord-est con raffiche fino a 25 kt

TAF: LFJL 311100Z 3112/0112 06010KT CAVOK TEMPO 3112/3115 06015G25KT

Osservazioni e previsioni meteorologiche di più di 4000 aeroporti (messaggi METAR e TAF).

Le stazioni disponibili sono rappresentate dai dischi gialli e rossi sulla carta.

Puntare il mouse per vedere il nome della stazione.

Clicca sopra per visualizzare le osservazioni e previsioni meteorologiche.

Per cambiare la mappa : fare clic sui pulsanti verdi con una croce nera per ingrandire, il pulsante verde con un trattino per diminuire, o sulla freccia verde per le mappe adiacenti.


METAR-TAF: